Latest Weather Observations for Kilmore Gap

IDV60801

Issued at 6:32 pm EST Wednesday 28 June 2017 (issued every 30 minutes, with the page automatically refreshed every 10 minutes)

About weather observations | Map of weather stations | Latest weather observations for VIC | Other Formats
Station Details ID: 088162 Name: KILMORE GAP Lat: -37.38 Lon: 144.97 Height: 527.8 m
Data from the previous 72 hours. | See also: Recent months at Kilmore Gap
Date/Time
EST
Temp
°C
App
Temp
°C
Dew
Point
°C
Rel
Hum
%
Delta-T
°C
Wind Press
QNH
hPa
Press
MSL
hPa
Rain since
9am
mm
Dir  Spd
km/h
Gust
km/h
Spd
kts
Gust
kts
28/06:30pm 7.0 2.8 5.8 92 0.6 N 17 22 9 12 1022.5 1023.2 0.0
28/06:00pm 7.1 2.6 5.9 92 0.6 N 19 22 10 12 1022.2 1023.0 0.0
28/05:30pm 7.2 2.7 6.0 92 0.6 N 19 20 10 11 1022.1 1022.9 0.0
28/05:00pm 7.4 3.2 5.9 90 0.7 N 17 20 9 11 1022.1 1022.9 0.0
28/04:30pm 7.8 3.7 6.1 89 0.8 N 17 20 9 11 1022.1 1022.9 0.0
28/04:00pm 8.2 4.1 6.2 87 0.9 N 17 20 9 11 1022.1 1022.9 0.0
28/03:30pm 8.5 4.0 6.3 86 1.0 N 19 22 10 12 1022.0 1022.8 0.0
28/03:00pm 8.7 4.1 6.3 85 1.1 N 20 26 11 14 1021.8 1022.6 0.0
28/02:30pm 8.3 3.7 6.4 88 0.9 N 20 26 11 14 1021.9 1022.7 0.0
28/02:00pm 8.1 2.8 6.7 91 0.7 N 24 28 13 15 1022.0 1022.8 0.0
28/01:30pm 8.1 2.8 6.6 90 0.7 N 24 30 13 16 1022.3 1023.1 0.0
28/01:00pm 8.2 3.3 7.0 92 0.6 N 22 30 12 16 1022.5 1023.2 0.0
28/12:30pm 7.8 2.1 6.6 92 0.6 N 26 30 14 16 1022.7 1023.4 0.0
28/12:00pm 7.7 2.7 6.5 92 0.6 N 22 28 12 15 1023.0 1023.7 0.0
28/11:30am 7.3 2.5 7.2 99 0.0 N 22 26 12 14 1023.2 1024.0 0.0
28/11:11am 6.4 1.0 6.3 99 0.0 N 24 30 13 16 1023.3 1024.1 0.0
28/11:00am 6.4 1.4 6.3 99 0.0 N 22 28 12 15 1023.3 1024.1 0.0
28/10:50am 6.3 0.9 6.2 99 0.0 N 24 28 13 15 1023.3 1024.1 0.0
28/10:30am 6.7 1.7 6.6 99 0.0 N 22 26 12 14 1023.5 1024.3 0.0
28/10:18am 5.4 -0.6 5.3 99 0.0 N 26 30 14 16 1023.4 1024.2 0.0
28/10:15am 5.4 -0.6 5.3 99 0.0 N 26 30 14 16 1023.4 1024.2 0.0
28/10:08am 5.7 -0.2 5.6 99 0.0 N 26 32 14 17 1023.5 1024.3 0.0
28/10:02am 5.1 -1.0 5.0 99 0.0 N 26 32 14 17 1023.4 1024.2 0.0
28/10:00am 4.8 -1.3 4.7 99 0.0 N 26 32 14 17 1023.4 1024.2 0.0
28/09:30am 4.4 -1.4 4.3 99 0.0 N 24 30 13 16 1023.3 1024.1 0.0
28/09:00am 4.1 -1.8 4.0 99 0.0 N 24 28 13 15 1023.1 1023.8 0.2
28/08:30am 4.0 -1.9 3.9 99 0.0 N 24 30 13 16 1023.0 1023.7 0.2
28/08:22am 4.0 -1.9 3.9 99 0.0 N 24 30 13 16 1023.0 1023.7 0.2
28/08:00am 3.9 -2.0 3.8 99 0.0 N 24 28 13 15 1022.7 1023.4 0.2
28/07:30am 4.0 -1.5 3.9 99 0.0 N 22 26 12 14 1022.5 1023.2 0.2
28/07:22am 3.9 -1.6 3.8 99 0.0 N 22 26 12 14 1022.5 1023.2 0.2
28/07:00am 3.9 -1.3 3.8 99 0.0 N 20 24 11 13 1022.3 1023.1 0.2
28/06:30am 3.9 -1.3 3.8 99 0.0 N 20 24 11 13 1022.3 1023.1 0.0
28/06:00am 3.8 -1.8 3.7 99 0.0 N 22 26 12 14 1022.1 1022.9 0.0
28/05:30am 3.9 -1.6 3.8 99 0.0 N 22 26 12 14 1021.9 1022.7 0.0
28/05:00am 3.9 -1.6 3.8 99 0.0 N 22 28 12 15 1022.2 1023.0 0.0
28/04:30am 4.0 -1.5 3.9 99 0.0 N 22 24 12 13 1022.3 1023.1 0.0
28/04:00am 4.2 -1.3 4.1 99 0.0 N 22 28 12 15 1022.6 1023.3 0.0
28/03:30am 4.3 -1.5 4.2 99 0.0 N 24 28 13 15 1022.7 1023.4 0.0
28/03:00am 4.3 -1.9 4.2 99 0.0 N 26 30 14 16 1023.0 1023.7 0.0
28/02:30am 4.4 -1.8 4.3 99 0.0 N 26 30 14 16 1023.0 1023.7 0.0
28/02:00am 4.4 -0.7 4.3 99 0.0 N 20 24 11 13 1022.7 1023.4 0.0
28/01:30am 4.5 -0.5 4.4 99 0.0 N 20 24 11 13 1022.7 1023.4 0.0
28/01:00am 4.6 -1.6 4.5 99 0.0 N 26 32 14 17 1023.1 1023.8 0.0
28/12:30am 4.4 -1.4 4.3 99 0.0 N 24 30 13 16 1023.2 1024.0 0.0
28/12:00am 4.3 -1.5 4.2 99 0.0 N 24 28 13 15 1023.0 1023.7 0.0
 
Date/Time
EST
Temp
°C
App
Temp
°C
Dew
Point
°C
Rel
Hum
%
Delta-T
°C
Wind Press
QNH
hPa
Press
MSL
hPa
Rain since
9am
mm
Dir  Spd
km/h
Gust
km/h
Spd
kts
Gust
kts
27/11:30pm 4.7 -1.1 4.6 99 0.0 N 24 28 13 15 1023.2 1024.0 0.0
27/11:00pm 4.9 -0.8 4.8 99 0.0 N 24 30 13 16 1023.5 1024.3 0.0
27/10:30pm 5.0 -1.1 4.9 99 0.0 NNW 26 30 14 16 1023.5 1024.3 0.0
27/10:00pm 4.9 -0.8 4.8 99 0.0 N 24 30 13 16 1023.4 1024.2 0.0
27/09:30pm 4.8 -0.9 4.7 99 0.0 N 24 28 13 15 1023.3 1024.1 0.0
27/09:00pm 4.6 -1.2 4.5 99 0.0 N 24 28 13 15 1023.2 1024.0 0.0
27/08:30pm 4.7 -0.7 4.6 99 0.0 N 22 28 12 15 1023.3 1024.1 0.0
27/08:00pm 4.8 -0.9 4.7 99 0.0 N 24 30 13 16 1023.4 1024.2 0.0
27/07:30pm 4.9 -0.4 4.8 99 0.0 N 22 28 12 15 1023.3 1024.1 0.0
27/07:00pm 5.0 -0.3 4.9 99 0.0 N 22 28 12 15 1023.4 1024.2 0.0
27/06:40pm 4.8 -0.6 4.7 99 0.0 N 22 26 12 14 1023.4 1024.2 0.0
27/06:30pm 4.9 -0.1 4.8 99 0.0 N 20 26 11 14 1023.4 1024.2 0.0
27/06:27pm 4.9 -0.1 4.8 99 0.0 N 20 24 11 13 1023.3 1024.1 0.0
27/06:00pm 5.1 -0.2 5.0 99 0.0 N 22 26 12 14 1023.3 1024.1 0.0
27/05:30pm 5.2 0.3 5.1 99 0.0 N 20 24 11 13 1023.3 1024.1 0.0
27/05:00pm 5.2 0.3 5.1 99 0.0 N 20 26 11 14 1023.3 1024.1 0.0
27/04:45pm 5.3 0.4 5.2 99 0.0 NNE 20 24 11 13 1023.3 1024.1 0.0
27/04:30pm 5.3 0.0 5.2 99 0.0 NNE 22 28 12 15 1023.3 1024.1 0.0
27/04:20pm 5.4 0.5 5.3 99 0.0 N 20 28 11 15 1023.4 1024.2 0.0
27/04:00pm 5.4 0.7 5.3 99 0.0 N 19 22 10 12 1023.6 1024.4 0.0
27/03:36pm 5.4 1.1 5.3 99 0.0 N 17 20 9 11 1023.6 1024.4 0.0
27/03:30pm 5.4 1.1 5.3 99 0.0 N 17 20 9 11 1023.5 1024.3 0.0
27/03:22pm 5.5 0.8 5.2 98 0.1 N 19 20 10 11 1023.5 1024.3 0.0
27/03:00pm 5.6 1.4 5.5 99 0.0 N 17 22 9 12 1023.4 1024.2 0.0
27/02:50pm 5.5 0.8 5.2 98 0.1 N 19 22 10 12 1023.5 1024.3 0.0
27/02:30pm 5.4 0.5 5.1 98 0.1 N 20 24 11 13 1023.6 1024.4 0.0
27/02:18pm 5.4 0.5 5.1 98 0.1 N 20 24 11 13 1023.6 1024.4 0.0
27/02:00pm 5.3 0.4 5.0 98 0.1 N 20 24 11 13 1023.6 1024.4 0.0
27/01:30pm 5.5 0.6 5.2 98 0.1 N 20 24 11 13 1023.8 1024.6 0.0
27/01:00pm 5.5 0.9 5.4 99 0.0 N 19 26 10 14 1023.9 1024.7 0.0
27/12:55pm 5.5 0.9 5.4 99 0.0 N 19 24 10 13 1024.0 1024.8 0.0
27/12:30pm 5.3 0.6 5.2 99 0.0 N 19 26 10 14 1024.1 1024.9 0.0
27/12:08pm 5.3 0.4 5.2 99 0.0 N 20 26 11 14 1024.2 1025.0 0.0
27/12:00pm 5.4 0.5 5.3 99 0.0 N 20 24 11 13 1024.3 1025.1 0.0
27/11:30am 5.1 0.2 5.0 99 0.0 N 20 26 11 14 1024.9 1025.7 0.0
27/11:00am 4.9 0.1 4.8 99 0.0 N 19 22 10 12 1025.3 1026.1 0.0
27/10:55am 4.9 0.5 4.8 99 0.0 N 17 22 9 12 1025.3 1026.1 0.0
27/10:30am 4.6 -0.4 4.5 99 0.0 N 20 24 11 13 1025.4 1026.2 0.0
27/10:00am 4.8 0.0 4.7 99 0.0 N 19 24 10 13 1025.4 1026.2 0.0
27/09:30am 4.5 0.0 4.4 99 0.0 N 17 20 9 11 1024.9 1025.7 0.0
27/09:15am 4.4 -0.1 4.3 99 0.0 N 17 20 9 11 1025.1 1025.9 0.0
27/09:05am 4.3 -0.2 4.2 99 0.0 N 17 22 9 12 1025.2 1026.0 0.0
27/09:00am 4.3 -0.2 4.0 98 0.1 N 17 22 9 12 1025.2 1026.0 0.0
27/08:30am 4.8 0.9 3.5 91 0.6 N 13 15 7 8 1025.1 1025.9 0.0
27/08:00am 5.5 1.9 3.2 85 1.0 NNE 11 15 6 8 1024.9 1025.7 0.0
27/07:30am 5.5 2.3 3.3 86 0.9 N 9 13 5 7 1024.9 1025.7 0.0
27/07:00am 6.5 4.6 0.6 66 2.4 CALM 0 0 0 0 1024.7 1025.4 0.0
27/06:30am 6.4 4.5 0.5 66 2.4 CALM 0 0 0 0 1024.7 1025.4 0.0
27/06:00am 6.5 4.6 0.4 65 2.5 CALM 0 0 0 0 1024.6 1025.3 0.0
27/05:30am 6.3 4.4 0.6 67 2.3 CALM 0 0 0 0 1024.5 1025.2 0.0
27/05:00am 6.2 4.0 1.1 70 2.1 NW 2 7 1 4 1024.6 1025.3 0.0
27/04:30am 6.4 4.5 0.7 67 2.3 CALM 0 0 0 0 1024.6 1025.3 0.0
27/04:00am 6.6 3.9 2.7 76 1.7 N 6 11 3 6 1024.9 1025.7 0.0
27/03:30am 6.5 4.2 2.8 77 1.6 W 4 6 2 3 1025.1 1025.9 0.0
27/03:00am 5.8 3.8 2.4 79 1.4 W 2 6 1 3 1025.0 1025.8 0.0
27/02:30am 6.1 4.7 3.3 82 1.2 CALM 0 6 0 3 1025.1 1025.9 0.0
27/02:00am 6.0 4.1 5.0 93 0.4 NNW 4 9 2 5 1025.1 1025.9 0.0
27/01:30am 5.7 4.6 5.1 96 0.3 CALM 0 0 0 0 1025.1 1025.9 0.0
27/01:00am 5.7 4.6 5.1 96 0.3 CALM 0 0 0 0 1024.9 1025.7 0.0
27/12:30am 6.0 4.9 5.3 95 0.3 CALM 0 6 0 3 1025.0 1025.8 0.0
27/12:00am 5.9 3.5 5.3 96 0.3 SW 7 9 4 5 1025.2 1026.0 0.0
 
Date/Time
EST
Temp
°C
App
Temp
°C
Dew
Point
°C
Rel
Hum
%
Delta-T
°C
Wind Press
QNH
hPa
Press
MSL
hPa
Rain since
9am
mm
Dir  Spd
km/h
Gust
km/h
Spd
kts
Gust
kts
26/11:30pm 6.6 4.4 5.1 90 0.7 S 6 7 3 4 1025.3 1026.1 0.0
26/11:00pm 6.6 4.2 5.1 90 0.7 SSE 7 7 4 4 1025.2 1026.0 0.0
26/10:30pm 6.7 4.2 4.9 88 0.8 SSE 7 9 4 5 1025.4 1026.2 0.0
26/10:00pm 6.9 4.6 4.9 87 0.9 SSE 6 9 3 5 1025.4 1026.2 0.0
26/09:30pm 7.0 4.6 5.2 88 0.8 SSE 7 9 4 5 1025.5 1026.3 0.0
26/09:00pm 7.0 4.7 5.6 91 0.6 SSE 7 9 4 5 1025.5 1026.3 0.0
26/08:30pm 7.0 4.9 5.6 91 0.6 SE 6 7 3 4 1025.5 1026.3 0.0
26/08:00pm 6.9 4.6 5.5 91 0.6 SE 7 9 4 5 1025.4 1026.2 0.0
26/07:30pm 7.0 4.7 5.6 91 0.6 S 7 9 4 5 1025.2 1026.0 0.0
26/07:00pm 7.2 6.2 5.5 89 0.8 CALM 0 0 0 0 1025.2 1026.0 0.0
26/06:30pm 7.0 5.2 5.6 91 0.6 S 4 6 2 3 1025.0 1025.8 0.0
26/06:00pm 7.0 4.7 5.6 91 0.6 S 7 7 4 4 1024.7 1025.4 0.0
26/05:30pm 7.1 4.4 5.7 91 0.6 SW 9 9 5 5 1024.3 1025.1 0.0
26/05:00pm 7.2 4.9 5.7 90 0.7 S 7 9 4 5 1024.0 1024.8 0.0
26/04:30pm 7.5 5.3 6.0 90 0.7 S 7 13 4 7 1023.9 1024.7 0.0
26/04:00pm 7.7 4.7 6.2 90 0.7 S 11 17 6 9 1023.8 1024.6 0.0
26/03:30pm 7.9 4.2 6.4 90 0.7 S 15 20 8 11 1023.6 1024.4 0.0
26/03:00pm 8.4 5.6 5.3 81 1.4 SSW 9 13 5 7 1023.5 1024.3 0.0
26/02:30pm 8.5 5.8 5.4 81 1.4 SW 9 13 5 7 1023.4 1024.2 0.0
26/02:00pm 8.4 5.6 5.3 81 1.4 SSW 9 13 5 7 1023.2 1024.0 0.0
26/01:30pm 8.3 5.2 5.6 83 1.3 SW 11 15 6 8 1023.3 1024.1 0.0
26/01:00pm 8.3 5.5 5.1 80 1.5 WSW 9 13 5 7 1023.4 1024.2 0.0
26/12:30pm 7.8 4.7 5.4 85 1.1 WSW 11 15 6 8 1023.5 1024.3 0.0
26/12:00pm 7.8 5.2 5.9 88 0.9 WSW 9 17 5 9 1023.8 1024.6 0.0
26/11:53am 7.6 4.1 5.6 87 0.9 WSW 13 19 7 10 1023.8 1024.6 0.0
26/11:30am 8.8 6.2 6.3 84 1.2 SW 9 13 5 7 1023.8 1024.6 0.0
26/11:27am 8.5 5.9 6.3 86 1.0 SW 9 13 5 7 1023.8 1024.6 0.0
26/11:09am 7.6 4.5 5.4 86 1.0 WSW 11 17 6 9 1023.9 1024.7 0.0
26/11:00am 7.8 4.9 6.3 90 0.7 SW 11 15 6 8 1023.9 1024.7 0.0
26/10:45am 7.6 4.6 5.9 89 0.8 WSW 11 17 6 9 1023.9 1024.7 0.0
26/10:30am 7.5 4.1 6.1 91 0.7 SW 13 17 7 9 1023.8 1024.6 0.0
26/10:00am 6.7 2.8 5.3 91 0.6 SW 15 19 8 10 1023.4 1024.2 0.0
26/09:30am 5.8 2.1 4.6 92 0.5 WSW 13 19 7 10 1023.0 1023.7 0.0
26/09:00am 6.0 2.3 4.6 91 0.6 WSW 13 17 7 9 1022.5 1023.2 0.0
26/08:30am 5.7 2.0 4.5 92 0.5 WSW 13 15 7 8 1022.0 1022.8 0.0
26/08:00am 5.5 1.8 4.5 93 0.4 WSW 13 15 7 8 1021.7 1022.5 0.0
26/07:30am 5.2 1.9 4.3 94 0.4 WSW 11 15 6 8 1021.3 1022.0 0.0
26/07:00am 5.3 2.0 4.4 94 0.4 WSW 11 15 6 8 1020.9 1021.6 0.0
26/06:50am 5.2 1.5 4.2 93 0.4 WSW 13 17 7 9 1020.9 1021.6 0.0
26/06:30am 5.5 2.2 4.6 94 0.4 W 11 15 6 8 1020.7 1021.4 0.0
26/06:00am 5.6 2.4 4.9 95 0.3 WSW 11 15 6 8 1020.3 1021.1 0.0
26/05:53am 5.5 2.2 4.8 95 0.3 W 11 15 6 8 1020.2 1021.0 0.0
26/05:30am 5.5 3.0 4.9 96 0.3 WNW 7 9 4 5 1020.0 1020.8 0.0
26/05:00am 5.8 3.4 5.2 96 0.3 WNW 7 9 4 5 1019.9 1020.6 0.0
26/04:30am 6.1 3.8 5.5 96 0.3 WNW 7 13 4 7 1019.7 1020.4 0.0
26/04:00am 6.2 3.9 5.6 96 0.3 WNW 7 11 4 6 1019.7 1020.4 0.0
26/03:35am 6.3 3.2 5.6 95 0.3 W 11 17 6 9 1019.7 1020.4 0.0
26/03:30am 6.3 2.9 5.7 96 0.3 W 13 17 7 9 1019.7 1020.4 0.0
26/03:03am 5.8 2.9 4.9 94 0.4 WNW 9 13 5 7 1019.6 1020.3 0.0
26/03:00am 6.5 3.8 5.6 94 0.4 W 9 13 5 7 1019.6 1020.3 0.0
26/02:30am 6.3 3.2 5.4 94 0.4 W 11 13 6 7 1019.3 1020.0 0.0
26/02:00am 6.4 4.1 5.7 95 0.3 WNW 7 9 4 5 1019.1 1019.8 0.0
26/01:30am 6.2 3.9 5.6 96 0.3 WNW 7 11 4 6 1018.9 1019.6 0.0
26/01:00am 6.0 3.3 5.6 97 0.2 NW 9 11 5 6 1018.7 1019.4 0.0
26/12:30am 5.9 3.1 5.2 95 0.3 WNW 9 13 5 7 1018.8 1019.5 0.0
26/12:00am 6.6 3.5 5.7 94 0.4 WNW 11 15 6 8 1018.8 1019.5 0.0
 
Date/Time
EST
Temp
°C
App
Temp
°C
Dew
Point
°C
Rel
Hum
%
Delta-T
°C
Wind Press
QNH
hPa
Press
MSL
hPa
Rain since
9am
mm
Dir  Spd
km/h
Gust
km/h
Spd
kts
Gust
kts
25/11:30pm 6.5 2.7 5.6 94 0.4 NW 15 19 8 10 1018.8 1019.5 0.0
25/11:00pm 6.6 2.8 5.7 94 0.4 NW 15 19 8 10 1018.6 1019.3 0.0
25/10:30pm 6.8 3.0 5.7 93 0.5 NW 15 20 8 11 1018.7 1019.4 0.0
25/10:00pm 7.0 2.8 5.6 91 0.6 NW 17 24 9 13 1018.6 1019.3 0.0
25/09:30pm 7.2 2.4 5.7 90 0.7 NW 20 28 11 15 1018.3 1019.1 0.0
25/09:00pm 7.0 2.4 5.8 92 0.6 NW 19 22 10 12 1017.9 1018.6 0.0
25/08:30pm 7.0 2.3 5.9 93 0.5 NNW 20 24 11 13 1017.7 1018.4 0.0
25/08:00pm 6.6 1.8 5.6 93 0.5 NNW 20 24 11 13 1017.5 1018.2 0.0
25/07:30pm 6.7 1.5 5.7 93 0.5 NNW 22 26 12 14 1017.1 1017.8 0.0
25/07:00pm 6.3 1.1 5.3 93 0.5 NNW 22 26 12 14 1016.9 1017.6 0.0

Other Formats:

Comma delimited format used in spreadsheet applications
http://www.bom.gov.au/fwo/IDV60801/IDV60801.94860.axf

JavaScript Object Notation format (JSON) in row-major order
http://www.bom.gov.au/fwo/IDV60801/IDV60801.94860.json